sensor_id;sensor_type;location;lat;lon;timestamp;P1;durP1;ratioP1;P2;durP2;ratioP2
36787;SDS011;22738;45.560;9.434;2023-05-10T00:00:15;30.63;;;18.23;;
36787;SDS011;22738;45.560;9.434;2023-05-10T00:06:57;29.35;;;17.67;;
36787;SDS011;22738;45.560;9.434;2023-05-10T00:13:38;30.25;;;18.13;;
36787;SDS011;22738;45.560;9.434;2023-05-10T00:20:19;28.45;;;15.95;;
36787;SDS011;22738;45.560;9.434;2023-05-10T00:27:01;29.50;;;16.83;;
36787;SDS011;22738;45.560;9.434;2023-05-10T00:33:42;28.60;;;14.95;;
36787;SDS011;22738;45.560;9.434;2023-05-10T00:40:23;27.92;;;16.85;;
36787;SDS011;22738;45.560;9.434;2023-05-10T00:47:10;28.65;;;18.08;;
36787;SDS011;22738;45.560;9.434;2023-05-10T00:53:53;35.88;;;17.13;;
36787;SDS011;22738;45.560;9.434;2023-05-10T01:00:36;29.55;;;16.58;;
36787;SDS011;22738;45.560;9.434;2023-05-10T01:07:19;27.70;;;16.45;;
36787;SDS011;22738;45.560;9.434;2023-05-10T01:14:00;24.90;;;15.40;;
36787;SDS011;22738;45.560;9.434;2023-05-10T01:20:43;24.38;;;14.43;;
36787;SDS011;22738;45.560;9.434;2023-05-10T01:34:39;17.20;;;9.80;;
36787;SDS011;22738;45.560;9.434;2023-05-10T01:48:40;12.68;;;8.13;;
36787;SDS011;22738;45.560;9.434;2023-05-10T01:55:29;13.45;;;8.40;;
36787;SDS011;22738;45.560;9.434;2023-05-10T02:02:13;12.70;;;7.00;;
36787;SDS011;22738;45.560;9.434;2023-05-10T02:08:56;11.85;;;6.72;;
36787;SDS011;22738;45.560;9.434;2023-05-10T02:15:38;10.48;;;6.95;;
36787;SDS011;22738;45.560;9.434;2023-05-10T02:22:20;12.82;;;7.72;;
36787;SDS011;22738;45.560;9.434;2023-05-10T02:29:02;15.90;;;8.55;;
36787;SDS011;22738;45.560;9.434;2023-05-10T02:35:47;14.38;;;8.80;;
36787;SDS011;22738;45.560;9.434;2023-05-10T02:42:29;13.70;;;7.22;;
36787;SDS011;22738;45.560;9.434;2023-05-10T02:49:13;13.07;;;8.18;;
36787;SDS011;22738;45.560;9.434;2023-05-10T02:55:55;10.85;;;7.32;;
36787;SDS011;22738;45.560;9.434;2023-05-10T03:02:40;11.80;;;6.55;;
36787;SDS011;22738;45.560;9.434;2023-05-10T03:09:22;10.20;;;6.00;;
36787;SDS011;22738;45.560;9.434;2023-05-10T03:23:00;8.45;;;5.75;;
36787;SDS011;22738;45.560;9.434;2023-05-10T03:30:10;9.60;;;5.65;;
36787;SDS011;22738;45.560;9.434;2023-05-10T03:36:53;10.23;;;5.68;;
36787;SDS011;22738;45.560;9.434;2023-05-10T03:43:34;8.23;;;5.25;;
36787;SDS011;22738;45.560;9.434;2023-05-10T03:50:16;7.85;;;5.20;;
36787;SDS011;22738;45.560;9.434;2023-05-10T03:56:57;9.73;;;6.07;;
36787;SDS011;22738;45.560;9.434;2023-05-10T04:03:38;8.90;;;6.05;;
36787;SDS011;22738;45.560;9.434;2023-05-10T04:10:20;8.27;;;5.30;;
36787;SDS011;22738;45.560;9.434;2023-05-10T04:17:01;9.18;;;5.15;;
36787;SDS011;22738;45.560;9.434;2023-05-10T04:23:42;10.00;;;6.53;;
36787;SDS011;22738;45.560;9.434;2023-05-10T04:30:23;10.52;;;5.57;;
36787;SDS011;22738;45.560;9.434;2023-05-10T04:37:04;11.15;;;5.85;;
36787;SDS011;22738;45.560;9.434;2023-05-10T04:43:46;8.23;;;5.07;;
36787;SDS011;22738;45.560;9.434;2023-05-10T04:50:29;9.65;;;5.13;;
36787;SDS011;22738;45.560;9.434;2023-05-10T04:57:10;7.68;;;5.45;;
36787;SDS011;22738;45.560;9.434;2023-05-10T05:03:51;9.40;;;5.30;;
36787;SDS011;22738;45.560;9.434;2023-05-10T05:10:33;10.18;;;5.60;;
36787;SDS011;22738;45.560;9.434;2023-05-10T05:17:15;6.78;;;4.53;;
36787;SDS011;22738;45.560;9.434;2023-05-10T05:23:56;8.38;;;4.80;;
36787;SDS011;22738;45.560;9.434;2023-05-10T05:30:39;10.43;;;5.10;;
36787;SDS011;22738;45.560;9.434;2023-05-10T05:37:20;7.55;;;4.70;;
36787;SDS011;22738;45.560;9.434;2023-05-10T05:44:05;8.98;;;5.35;;
36787;SDS011;22738;45.560;9.434;2023-05-10T05:50:46;9.45;;;5.22;;
36787;SDS011;22738;45.560;9.434;2023-05-10T05:57:27;8.52;;;5.05;;
36787;SDS011;22738;45.560;9.434;2023-05-10T06:04:08;9.35;;;5.30;;
36787;SDS011;22738;45.560;9.434;2023-05-10T06:10:49;8.27;;;5.25;;
36787;SDS011;22738;45.560;9.434;2023-05-10T06:17:30;8.70;;;5.50;;
36787;SDS011;22738;45.560;9.434;2023-05-10T06:24:11;12.02;;;6.35;;
36787;SDS011;22738;45.560;9.434;2023-05-10T06:30:52;8.27;;;5.82;;
36787;SDS011;22738;45.560;9.434;2023-05-10T06:37:35;11.10;;;6.72;;
36787;SDS011;22738;45.560;9.434;2023-05-10T06:44:16;11.98;;;6.30;;
36787;SDS011;22738;45.560;9.434;2023-05-10T06:50:57;9.68;;;6.45;;
36787;SDS011;22738;45.560;9.434;2023-05-10T06:57:38;11.48;;;6.35;;
36787;SDS011;22738;45.560;9.434;2023-05-10T07:04:19;16.38;;;7.63;;
36787;SDS011;22738;45.560;9.434;2023-05-10T07:11:00;13.63;;;7.45;;
36787;SDS011;22738;45.560;9.434;2023-05-10T07:17:42;14.57;;;7.90;;
36787;SDS011;22738;45.560;9.434;2023-05-10T07:24:23;10.30;;;7.15;;
36787;SDS011;22738;45.560;9.434;2023-05-10T07:31:04;10.63;;;7.45;;
36787;SDS011;22738;45.560;9.434;2023-05-10T07:37:45;8.98;;;5.95;;
36787;SDS011;22738;45.560;9.434;2023-05-10T07:44:26;11.13;;;6.20;;
36787;SDS011;22738;45.560;9.434;2023-05-10T07:51:07;12.70;;;6.50;;
36787;SDS011;22738;45.560;9.434;2023-05-10T07:57:50;8.27;;;5.78;;
36787;SDS011;22738;45.560;9.434;2023-05-10T08:04:31;7.95;;;5.22;;
36787;SDS011;22738;45.560;9.434;2023-05-10T08:11:12;7.50;;;5.15;;
36787;SDS011;22738;45.560;9.434;2023-05-10T08:17:53;11.18;;;6.75;;
36787;SDS011;22738;45.560;9.434;2023-05-10T08:24:34;8.05;;;5.00;;
36787;SDS011;22738;45.560;9.434;2023-05-10T08:31:18;9.60;;;6.03;;
36787;SDS011;22738;45.560;9.434;2023-05-10T08:37:59;8.75;;;6.05;;
36787;SDS011;22738;45.560;9.434;2023-05-10T08:51:26;8.65;;;6.13;;
36787;SDS011;22738;45.560;9.434;2023-05-10T08:58:11;7.35;;;5.28;;
36787;SDS011;22738;45.560;9.434;2023-05-10T09:04:52;9.90;;;5.63;;
36787;SDS011;22738;45.560;9.434;2023-05-10T09:11:33;9.48;;;6.25;;
36787;SDS011;22738;45.560;9.434;2023-05-10T09:18:15;10.80;;;5.85;;
36787;SDS011;22738;45.560;9.434;2023-05-10T09:25:31;9.50;;;5.82;;
36787;SDS011;22738;45.560;9.434;2023-05-10T09:32:04;7.03;;;5.32;;
36787;SDS011;22738;45.560;9.434;2023-05-10T09:38:46;6.47;;;5.15;;
36787;SDS011;22738;45.560;9.434;2023-05-10T09:45:32;6.90;;;4.72;;
36787;SDS011;22738;45.560;9.434;2023-05-10T09:52:15;7.53;;;5.60;;
36787;SDS011;22738;45.560;9.434;2023-05-10T09:59:03;6.05;;;4.38;;
36787;SDS011;22738;45.560;9.434;2023-05-10T10:05:45;8.45;;;3.63;;
36787;SDS011;22738;45.560;9.434;2023-05-10T10:12:27;5.40;;;3.88;;
36787;SDS011;22738;45.560;9.434;2023-05-10T10:19:09;4.22;;;3.45;;
36787;SDS011;22738;45.560;9.434;2023-05-10T10:25:50;4.28;;;3.20;;
36787;SDS011;22738;45.560;9.434;2023-05-10T10:39:53;5.47;;;3.50;;
36787;SDS011;22738;45.560;9.434;2023-05-10T10:46:35;4.40;;;3.50;;
36787;SDS011;22738;45.560;9.434;2023-05-10T10:54:10;5.97;;;4.05;;
36787;SDS011;22738;45.560;9.434;2023-05-10T11:00:52;9.90;;;5.18;;
36787;SDS011;22738;45.560;9.434;2023-05-10T11:07:53;6.72;;;5.03;;
36787;SDS011;22738;45.560;9.434;2023-05-10T11:14:38;5.45;;;4.18;;
36787;SDS011;22738;45.560;9.434;2023-05-10T11:21:19;6.18;;;4.15;;
36787;SDS011;22738;45.560;9.434;2023-05-10T11:28:00;6.80;;;4.88;;
36787;SDS011;22738;45.560;9.434;2023-05-10T11:34:46;10.27;;;5.93;;
36787;SDS011;22738;45.560;9.434;2023-05-10T11:48:10;7.90;;;4.90;;
36787;SDS011;22738;45.560;9.434;2023-05-10T11:54:51;7.95;;;5.82;;
36787;SDS011;22738;45.560;9.434;2023-05-10T12:01:36;6.45;;;4.95;;
36787;SDS011;22738;45.560;9.434;2023-05-10T12:08:19;6.72;;;5.10;;
36787;SDS011;22738;45.560;9.434;2023-05-10T12:15:02;7.38;;;5.05;;
36787;SDS011;22738;45.560;9.434;2023-05-10T12:21:44;8.23;;;5.32;;
36787;SDS011;22738;45.560;9.434;2023-05-10T12:28:25;7.45;;;5.22;;
36787;SDS011;22738;45.560;9.434;2023-05-10T12:35:11;6.97;;;5.13;;
36787;SDS011;22738;45.560;9.434;2023-05-10T12:41:52;6.05;;;4.60;;
36787;SDS011;22738;45.560;9.434;2023-05-10T12:48:33;6.93;;;5.35;;
36787;SDS011;22738;45.560;9.434;2023-05-10T12:55:15;7.82;;;5.63;;
36787;SDS011;22738;45.560;9.434;2023-05-10T13:01:56;10.18;;;6.03;;
36787;SDS011;22738;45.560;9.434;2023-05-10T13:08:38;9.23;;;6.38;;
36787;SDS011;22738;45.560;9.434;2023-05-10T13:15:19;7.50;;;5.80;;
36787;SDS011;22738;45.560;9.434;2023-05-10T13:22:00;9.95;;;6.35;;
36787;SDS011;22738;45.560;9.434;2023-05-10T13:28:41;8.77;;;6.32;;
36787;SDS011;22738;45.560;9.434;2023-05-10T13:35:22;7.47;;;5.78;;
36787;SDS011;22738;45.560;9.434;2023-05-10T13:42:03;7.65;;;5.55;;
36787;SDS011;22738;45.560;9.434;2023-05-10T13:48:45;11.35;;;6.75;;
36787;SDS011;22738;45.560;9.434;2023-05-10T13:55:26;12.20;;;8.45;;
36787;SDS011;22738;45.560;9.434;2023-05-10T14:02:07;10.50;;;7.40;;
36787;SDS011;22738;45.560;9.434;2023-05-10T14:08:48;10.02;;;7.18;;
36787;SDS011;22738;45.560;9.434;2023-05-10T14:15:29;9.30;;;6.80;;
36787;SDS011;22738;45.560;9.434;2023-05-10T14:22:10;15.13;;;7.28;;
36787;SDS011;22738;45.560;9.434;2023-05-10T14:28:51;9.43;;;7.05;;
36787;SDS011;22738;45.560;9.434;2023-05-10T14:35:32;7.38;;;5.88;;
36787;SDS011;22738;45.560;9.434;2023-05-10T14:42:13;8.38;;;5.97;;
36787;SDS011;22738;45.560;9.434;2023-05-10T14:48:54;8.75;;;6.00;;
36787;SDS011;22738;45.560;9.434;2023-05-10T14:55:35;9.23;;;6.05;;
36787;SDS011;22738;45.560;9.434;2023-05-10T15:02:17;9.10;;;6.13;;
36787;SDS011;22738;45.560;9.434;2023-05-10T15:08:58;9.27;;;6.55;;
36787;SDS011;22738;45.560;9.434;2023-05-10T15:15:39;10.38;;;6.68;;
36787;SDS011;22738;45.560;9.434;2023-05-10T15:22:20;8.32;;;5.68;;
36787;SDS011;22738;45.560;9.434;2023-05-10T15:29:01;11.23;;;7.13;;
36787;SDS011;22738;45.560;9.434;2023-05-10T15:35:42;7.88;;;6.43;;
36787;SDS011;22738;45.560;9.434;2023-05-10T15:42:24;9.20;;;6.75;;
36787;SDS011;22738;45.560;9.434;2023-05-10T15:49:05;10.52;;;6.93;;
36787;SDS011;22738;45.560;9.434;2023-05-10T15:55:47;7.65;;;5.93;;
36787;SDS011;22738;45.560;9.434;2023-05-10T16:02:28;8.75;;;6.03;;
36787;SDS011;22738;45.560;9.434;2023-05-10T16:09:10;8.18;;;6.68;;
36787;SDS011;22738;45.560;9.434;2023-05-10T16:15:52;7.63;;;5.50;;
36787;SDS011;22738;45.560;9.434;2023-05-10T16:22:34;8.75;;;6.93;;
36787;SDS011;22738;45.560;9.434;2023-05-10T16:29:15;8.57;;;5.70;;
36787;SDS011;22738;45.560;9.434;2023-05-10T16:35:56;8.38;;;6.63;;
36787;SDS011;22738;45.560;9.434;2023-05-10T16:42:39;7.60;;;5.38;;
36787;SDS011;22738;45.560;9.434;2023-05-10T16:49:20;7.90;;;6.22;;
36787;SDS011;22738;45.560;9.434;2023-05-10T16:56:02;7.03;;;5.57;;
36787;SDS011;22738;45.560;9.434;2023-05-10T17:02:43;8.73;;;6.03;;
36787;SDS011;22738;45.560;9.434;2023-05-10T17:09:25;9.77;;;6.28;;
36787;SDS011;22738;45.560;9.434;2023-05-10T17:16:06;8.60;;;6.13;;
36787;SDS011;22738;45.560;9.434;2023-05-10T17:22:47;10.38;;;6.55;;
36787;SDS011;22738;45.560;9.434;2023-05-10T17:29:28;10.55;;;6.40;;
36787;SDS011;22738;45.560;9.434;2023-05-10T17:36:11;9.30;;;6.50;;
36787;SDS011;22738;45.560;9.434;2023-05-10T17:42:52;9.05;;;6.43;;
36787;SDS011;22738;45.560;9.434;2023-05-10T17:49:33;9.32;;;6.63;;
36787;SDS011;22738;45.560;9.434;2023-05-10T17:56:14;11.00;;;6.93;;
36787;SDS011;22738;45.560;9.434;2023-05-10T18:02:55;10.00;;;6.82;;
36787;SDS011;22738;45.560;9.434;2023-05-10T18:09:36;10.68;;;6.55;;
36787;SDS011;22738;45.560;9.434;2023-05-10T18:16:17;9.35;;;5.50;;
36787;SDS011;22738;45.560;9.434;2023-05-10T18:22:58;10.50;;;7.10;;
36787;SDS011;22738;45.560;9.434;2023-05-10T18:29:39;10.25;;;6.57;;
36787;SDS011;22738;45.560;9.434;2023-05-10T18:36:21;9.98;;;6.35;;
36787;SDS011;22738;45.560;9.434;2023-05-10T18:43:03;8.82;;;6.63;;
36787;SDS011;22738;45.560;9.434;2023-05-10T18:49:45;9.75;;;6.45;;
36787;SDS011;22738;45.560;9.434;2023-05-10T18:56:26;9.75;;;6.80;;
36787;SDS011;22738;45.560;9.434;2023-05-10T19:03:07;10.93;;;6.03;;
36787;SDS011;22738;45.560;9.434;2023-05-10T19:09:48;11.90;;;7.70;;
36787;SDS011;22738;45.560;9.434;2023-05-10T19:16:30;9.02;;;5.88;;
36787;SDS011;22738;45.560;9.434;2023-05-10T19:23:13;10.95;;;7.13;;
36787;SDS011;22738;45.560;9.434;2023-05-10T19:29:54;9.57;;;6.82;;
36787;SDS011;22738;45.560;9.434;2023-05-10T19:36:36;8.88;;;6.45;;
36787;SDS011;22738;45.560;9.434;2023-05-10T19:43:17;13.40;;;7.85;;
36787;SDS011;22738;45.560;9.434;2023-05-10T19:49:58;11.40;;;7.00;;
36787;SDS011;22738;45.560;9.434;2023-05-10T19:56:39;14.98;;;6.95;;
36787;SDS011;22738;45.560;9.434;2023-05-10T20:03:20;13.50;;;8.10;;
36787;SDS011;22738;45.560;9.434;2023-05-10T20:10:03;10.27;;;6.63;;
36787;SDS011;22738;45.560;9.434;2023-05-10T20:16:44;19.90;;;9.03;;
36787;SDS011;22738;45.560;9.434;2023-05-10T20:23:25;12.13;;;7.90;;
36787;SDS011;22738;45.560;9.434;2023-05-10T20:30:07;14.48;;;8.23;;
36787;SDS011;22738;45.560;9.434;2023-05-10T20:36:49;13.65;;;8.52;;
36787;SDS011;22738;45.560;9.434;2023-05-10T20:43:31;11.70;;;7.90;;
36787;SDS011;22738;45.560;9.434;2023-05-10T20:50:14;12.43;;;8.48;;
36787;SDS011;22738;45.560;9.434;2023-05-10T20:56:55;17.85;;;10.95;;
36787;SDS011;22738;45.560;9.434;2023-05-10T21:03:36;17.30;;;10.82;;
36787;SDS011;22738;45.560;9.434;2023-05-10T21:10:17;17.83;;;11.70;;
36787;SDS011;22738;45.560;9.434;2023-05-10T21:17:00;12.50;;;9.15;;
36787;SDS011;22738;45.560;9.434;2023-05-10T21:23:41;18.52;;;10.60;;
36787;SDS011;22738;45.560;9.434;2023-05-10T21:30:23;16.17;;;10.85;;
36787;SDS011;22738;45.560;9.434;2023-05-10T21:37:04;17.25;;;11.02;;
36787;SDS011;22738;45.560;9.434;2023-05-10T21:43:45;15.93;;;9.60;;
36787;SDS011;22738;45.560;9.434;2023-05-10T21:50:26;15.38;;;10.27;;
36787;SDS011;22738;45.560;9.434;2023-05-10T21:57:08;14.35;;;10.25;;
36787;SDS011;22738;45.560;9.434;2023-05-10T22:03:49;15.35;;;11.23;;
36787;SDS011;22738;45.560;9.434;2023-05-10T22:10:30;16.15;;;10.43;;
36787;SDS011;22738;45.560;9.434;2023-05-10T22:17:12;19.77;;;12.30;;
36787;SDS011;22738;45.560;9.434;2023-05-10T22:23:53;19.50;;;12.40;;
36787;SDS011;22738;45.560;9.434;2023-05-10T22:30:34;15.13;;;10.88;;
36787;SDS011;22738;45.560;9.434;2023-05-10T22:37:15;19.88;;;12.10;;
36787;SDS011;22738;45.560;9.434;2023-05-10T22:43:57;19.77;;;13.30;;
36787;SDS011;22738;45.560;9.434;2023-05-10T22:50:38;20.75;;;12.77;;
36787;SDS011;22738;45.560;9.434;2023-05-10T22:57:19;21.98;;;13.75;;
36787;SDS011;22738;45.560;9.434;2023-05-10T23:04:00;20.65;;;13.48;;
36787;SDS011;22738;45.560;9.434;2023-05-10T23:10:41;22.63;;;14.50;;
36787;SDS011;22738;45.560;9.434;2023-05-10T23:17:23;23.02;;;13.70;;
36787;SDS011;22738;45.560;9.434;2023-05-10T23:24:04;26.88;;;15.63;;
36787;SDS011;22738;45.560;9.434;2023-05-10T23:30:45;23.05;;;15.10;;
36787;SDS011;22738;45.560;9.434;2023-05-10T23:37:26;20.75;;;13.95;;
36787;SDS011;22738;45.560;9.434;2023-05-10T23:44:07;21.30;;;14.38;;
36787;SDS011;22738;45.560;9.434;2023-05-10T23:50:48;25.27;;;15.10;;
36787;SDS011;22738;45.560;9.434;2023-05-10T23:57:30;26.10;;;16.33;;
